createdAt,value
2018-12-29T00:01:59.934Z,101820.41
2018-12-29T00:07:05.968Z,101824.89
2018-12-29T00:12:11.399Z,101819.91
2018-12-29T00:17:16.672Z,101821.72
2018-12-29T00:22:22.105Z,101823.43
2018-12-29T00:27:27.468Z,101813.66
2018-12-29T00:32:32.669Z,101823.91
2018-12-29T00:37:38.443Z,101820.34
2018-12-29T00:42:43.821Z,101826.60
2018-12-29T00:47:49.066Z,101825.25
2018-12-29T00:52:54.440Z,101827.94
2018-12-29T00:57:59.770Z,101832.78
2018-12-29T01:03:05.150Z,101829.19
2018-12-29T01:08:10.410Z,101825.25
2018-12-29T01:13:15.794Z,101824.73
2018-12-29T01:18:21.045Z,101818.50
2018-12-29T01:23:26.472Z,101824.82
2018-12-29T01:28:31.695Z,101820.84
2018-12-29T01:33:37.095Z,101816.42
2018-12-29T01:38:42.500Z,101825.34
2018-12-29T01:49:06.040Z,101856.48
2018-12-29T01:54:11.714Z,101856.48
2018-12-29T02:04:48.013Z,101865.89
2018-12-29T02:15:05.519Z,101871.17
2018-12-29T02:25:45.235Z,101861.41
2018-12-29T02:30:50.630Z,101852.54
2018-12-29T02:35:55.936Z,101849.45
2018-12-29T02:41:01.214Z,101845.88
2018-12-29T02:46:06.478Z,101842.29
2018-12-29T02:51:17.629Z,101839.61
2018-12-29T02:56:23.460Z,101833.36
2018-12-29T03:01:28.922Z,101826.25
2018-12-29T03:12:05.604Z,101816.47
2018-12-29T03:22:16.371Z,101799.95
2018-12-29T03:27:21.677Z,101772.90
2018-12-29T03:32:27.097Z,101796.45
2018-12-29T03:37:32.466Z,101806.66
2018-12-29T03:42:43.431Z,101800.88
2018-12-29T03:47:48.771Z,101798.62
2018-12-29T03:52:54.050Z,101795.95
2018-12-29T03:57:59.444Z,101797.73
2018-12-29T04:03:04.851Z,101803.95
2018-12-29T04:08:10.198Z,101786.95
2018-12-29T04:13:15.630Z,101797.59
2018-12-29T04:18:20.947Z,101794.94
2018-12-29T04:23:26.275Z,101795.79
2018-12-29T04:28:32.011Z,101787.34
2018-12-29T04:33:37.460Z,101783.36
2018-12-29T04:38:42.918Z,101777.97
2018-12-29T04:43:48.350Z,101779.34
2018-12-29T04:48:54.320Z,101779.36
2018-12-29T04:53:59.638Z,101770.91
2018-12-29T04:59:05.072Z,101759.78
2018-12-29T05:04:10.369Z,101741.96
2018-12-29T05:09:15.654Z,101741.96
2018-12-29T05:14:21.094Z,101764.30
2018-12-29T05:19:26.605Z,101755.40
2018-12-29T05:24:31.889Z,101767.84
2018-12-29T05:29:37.235Z,101767.02
2018-12-29T05:34:42.422Z,101774.09
2018-12-29T05:39:47.854Z,101777.74
2018-12-29T05:44:53.235Z,101780.87
2018-12-29T05:49:58.778Z,101787.19
2018-12-29T05:55:04.127Z,101787.61
2018-12-29T06:00:09.630Z,101764.49
2018-12-29T06:05:15.016Z,101780.94
2018-12-29T06:10:20.391Z,101787.68
2018-12-29T06:15:25.665Z,101785.42
2018-12-29T06:20:30.977Z,101786.30
2018-12-29T06:25:36.457Z,101793.89
2018-12-29T06:30:41.710Z,101786.35
2018-12-29T06:35:46.999Z,101797.45
2018-12-29T06:40:52.465Z,101788.55
2018-12-29T06:45:57.890Z,101789.95
2018-12-29T06:51:03.621Z,101803.77
2018-12-29T06:56:09.010Z,101801.05
2018-12-29T07:01:14.300Z,101797.05
2018-12-29T07:06:19.556Z,101798.37
2018-12-29T07:11:24.900Z,101807.28
2018-12-29T07:16:30.130Z,101825.97
2018-12-29T07:21:35.485Z,101840.61
2018-12-29T07:26:40.815Z,101847.70
2018-12-29T07:31:46.215Z,101852.19
2018-12-29T07:36:51.656Z,101856.69
2018-12-29T07:41:56.986Z,101869.59
2018-12-29T07:47:02.283Z,101873.56
2018-12-29T07:52:07.746Z,101873.59
2018-12-29T07:57:20.255Z,101880.71
2018-12-29T08:02:25.519Z,101874.52
2018-12-29T08:07:30.809Z,101879.86
2018-12-29T08:12:36.216Z,101868.32
2018-12-29T08:17:42.726Z,101873.20
2018-12-29T08:22:48.027Z,101885.68
2018-12-29T08:27:53.499Z,101891.86
2018-12-29T08:32:58.932Z,101903.83
2018-12-29T08:38:04.248Z,101906.02
2018-12-29T08:43:09.814Z,101919.84
2018-12-29T08:48:15.017Z,101922.94
2018-12-29T08:53:20.470Z,101924.65
2018-12-29T08:58:25.720Z,101919.36
2018-12-29T09:03:31.138Z,101917.59
2018-12-29T09:08:36.672Z,101927.80
2018-12-29T09:13:42.074Z,101922.04
2018-12-29T09:18:49.791Z,101928.71
2018-12-29T09:23:54.510Z,101935.38
2018-12-29T09:28:59.820Z,101931.80
2018-12-29T09:34:05.198Z,101932.70
2018-12-29T09:39:10.834Z,101927.38
2018-12-29T09:44:16.249Z,101931.80
2018-12-29T09:49:21.431Z,101938.41
2018-12-29T09:54:26.850Z,101941.14
2018-12-29T09:59:32.516Z,101940.30
2018-12-29T10:04:37.855Z,101933.58
2018-12-29T10:09:43.166Z,101950.02
2018-12-29T10:14:46.550Z,101951.40
2018-12-29T10:19:51.802Z,101957.60
2018-12-29T10:24:57.283Z,101962.94
2018-12-29T10:30:02.553Z,101951.34
2018-12-29T10:35:08.206Z,101946.86
2018-12-29T10:40:13.670Z,101946.02
2018-12-29T10:45:19.011Z,101946.44
2018-12-29T10:50:24.381Z,101937.16
2018-12-29T10:55:29.752Z,101931.74
2018-12-29T11:00:35.397Z,101926.27
2018-12-29T11:05:40.921Z,101927.38
2018-12-29T11:10:46.212Z,101927.38
2018-12-29T11:15:51.687Z,101948.96
2018-12-29T11:20:56.876Z,101945.33
2018-12-29T11:26:02.326Z,101932.78
2018-12-29T11:31:07.657Z,101926.13
2018-12-29T11:36:13.036Z,101925.70
2018-12-29T11:41:18.191Z,101923.02
2018-12-29T11:46:23.781Z,101928.50
2018-12-29T11:51:29.156Z,101923.08
2018-12-29T11:56:34.508Z,101928.42
2018-12-29T12:01:39.931Z,101930.26
2018-12-29T12:06:45.311Z,101933.28
2018-12-29T12:11:51.011Z,101923.88
2018-12-29T12:16:56.331Z,101906.50
2018-12-29T12:22:01.770Z,101891.34
2018-12-29T12:27:07.311Z,101892.73
2018-12-29T12:32:13.231Z,101894.11
2018-12-29T12:37:18.871Z,101870.16
2018-12-29T12:47:35.887Z,101856.30
2018-12-29T12:52:41.406Z,101851.78
2018-12-29T12:57:46.701Z,101848.13
2018-12-29T13:02:52.682Z,101855.80
2018-12-29T13:07:58.216Z,101845.53
2018-12-29T13:13:03.634Z,101836.23
2018-12-29T13:18:12.990Z,101839.42
2018-12-29T13:28:53.703Z,101845.63
2018-12-29T13:33:59.176Z,101844.34
2018-12-29T13:39:02.641Z,101836.84
2018-12-29T13:44:07.937Z,101842.19
2018-12-29T13:49:13.436Z,101848.47
2018-12-29T13:54:18.850Z,101836.02
2018-12-29T13:59:24.317Z,101842.69
2018-12-29T14:04:29.695Z,101845.34
2018-12-29T14:09:35.236Z,101847.95
2018-12-29T14:14:40.495Z,101859.06
2018-12-29T14:19:45.955Z,101863.55
2018-12-29T14:24:51.722Z,101861.73
2018-12-29T14:29:57.135Z,101861.25
2018-12-29T14:35:03.079Z,101867.97
2018-12-29T14:40:08.675Z,101866.67
2018-12-29T14:45:14.016Z,101871.64
2018-12-29T14:50:19.622Z,101870.16
2018-12-29T14:55:25.175Z,101877.67
2018-12-29T15:00:30.730Z,101885.62
2018-12-29T15:05:36.125Z,101889.20
2018-12-29T15:10:41.431Z,101891.97
2018-12-29T15:15:47.242Z,101917.84
2018-12-29T15:20:53.122Z,101938.72
2018-12-29T15:25:58.400Z,101935.11
2018-12-29T15:31:04.116Z,101939.53
2018-12-29T15:36:15.978Z,101930.70
2018-12-29T15:41:16.920Z,101937.08
2018-12-29T15:46:22.376Z,101940.66
2018-12-29T15:51:28.010Z,101934.34
2018-12-29T15:56:33.396Z,101941.44
2018-12-29T16:01:39.850Z,101945.89
2018-12-29T16:06:45.417Z,101940.48
2018-12-29T16:11:50.875Z,101945.16
2018-12-29T16:16:56.347Z,101962.52
2018-12-29T16:22:02.097Z,101957.18
2018-12-29T16:27:07.516Z,101968.29
2018-12-29T16:32:13.077Z,101967.86
2018-12-29T16:37:18.556Z,101969.67
2018-12-29T16:42:23.977Z,101966.15
2018-12-29T16:47:29.397Z,101975.05
2018-12-29T16:52:34.897Z,101973.20
2018-12-29T16:57:41.037Z,101967.84
2018-12-29T17:02:46.656Z,101960.28
2018-12-29T17:07:52.277Z,101957.97
2018-12-29T17:12:57.817Z,101949.17
2018-12-29T17:18:03.327Z,101951.46
2018-12-29T17:23:08.737Z,101943.06
2018-12-29T17:28:14.336Z,101941.39
2018-12-29T17:33:19.901Z,101946.76
2018-12-29T17:38:25.197Z,101951.16
2018-12-29T17:43:30.786Z,101957.80
2018-12-29T17:48:36.119Z,101960.45
2018-12-29T17:53:47.947Z,101978.67
2018-12-29T17:58:48.854Z,101993.31
2018-12-29T18:03:54.294Z,101993.70
2018-12-29T18:08:59.707Z,102003.52
2018-12-29T18:14:05.098Z,102020.48
2018-12-29T18:19:10.528Z,102020.41
2018-12-29T18:24:16.171Z,102023.03
2018-12-29T18:29:21.580Z,102025.23
2018-12-29T18:34:27.437Z,102025.23
2018-12-29T18:39:32.856Z,102023.36
2018-12-29T18:44:38.354Z,102034.91
2018-12-29T18:49:43.859Z,102031.80
2018-12-29T18:54:49.531Z,102040.24
2018-12-29T18:59:55.126Z,102048.73
2018-12-29T19:05:00.550Z,102055.45
2018-12-29T19:10:06.196Z,102051.02
2018-12-29T19:15:11.774Z,102053.70
2018-12-29T19:20:17.755Z,102064.81
2018-12-29T19:25:23.657Z,102050.55
2018-12-29T19:30:29.103Z,102041.67
2018-12-29T19:35:34.962Z,102034.95
2018-12-29T19:40:40.508Z,102031.80
2018-12-29T19:45:46.426Z,102026.98
2018-12-29T19:50:51.740Z,102013.73
2018-12-29T19:55:57.574Z,102024.45
2018-12-29T20:01:02.885Z,102024.88
2018-12-29T20:06:11.276Z,102025.74
2018-12-29T20:11:16.063Z,102035.12
2018-12-29T20:16:21.982Z,102035.95
2018-12-29T20:21:27.406Z,102049.22
2018-12-29T20:26:33.111Z,102054.98
2018-12-29T20:31:38.744Z,102043.44
2018-12-29T20:36:44.364Z,102043.82
2018-12-29T20:41:49.863Z,102048.30
2018-12-29T20:46:57.043Z,102047.02
2018-12-29T20:52:02.582Z,102051.40
2018-12-29T20:57:07.922Z,102045.95
2018-12-29T21:02:13.362Z,102033.13
2018-12-29T21:07:18.941Z,102028.22
2018-12-29T21:12:24.376Z,102026.50
2018-12-29T21:17:29.978Z,102018.50
2018-12-29T21:22:35.702Z,102027.85
2018-12-29T21:27:41.351Z,102024.75
2018-12-29T21:32:47.226Z,102014.11
2018-12-29T21:37:52.741Z,102017.25
2018-12-29T21:42:58.372Z,102015.92
2018-12-29T21:48:03.922Z,102020.83
2018-12-29T21:53:09.425Z,102025.74
2018-12-29T21:58:15.068Z,102019.14
2018-12-29T22:03:20.423Z,102028.54
2018-12-29T22:08:26.563Z,102027.64
2018-12-29T22:13:31.869Z,102016.51
2018-12-29T22:18:37.539Z,102027.15
2018-12-29T22:23:42.906Z,102023.15
2018-12-29T22:28:48.295Z,102022.71
2018-12-29T22:33:53.594Z,102030.72
2018-12-29T22:38:59.072Z,102040.03
2018-12-29T22:44:04.784Z,102037.36
2018-12-29T22:49:10.092Z,102032.42
2018-12-29T22:54:15.535Z,102029.28
2018-12-29T22:59:20.784Z,102035.12
2018-12-29T23:04:26.200Z,102032.02
2018-12-29T23:09:31.574Z,102017.73
2018-12-29T23:14:36.850Z,102023.55
2018-12-29T23:19:42.543Z,102018.16
2018-12-29T23:24:49.182Z,102019.45
2018-12-29T23:29:54.964Z,102013.77
2018-12-29T23:35:00.258Z,102033.36
2018-12-29T23:40:05.989Z,102028.45
2018-12-29T23:45:11.514Z,102042.70
2018-12-29T23:50:17.334Z,102028.02
2018-12-29T23:55:23.104Z,102024.52
